Main page
METAR-TAF:

METAR-TAF

Airports :

Molde Airport. Årø

Molde, Norway

latitude: 62-45N, longitude: 007-16E, elevation: 0 m

Current weather observation

The report was made 39 minutes ago, at 19:50 UTC
Wind 5 kt from the Northeast
Temperature 1°C
Humidity 75%
Pressure 985 hPa
Visibility 10 km or more
Scattered clouds at a height of 5500 ft
Broken clouds at a height of 7000 ft

METAR: ENML 151950Z 04005KT 9999 SCT055 BKN070 01/M03 Q0985

Time: 21:29 (20:29 UTC)

Forecast

The report was made 3 hours and 29 minutes ago, at 17:00 UTC
Forecast valid from 15 at 18 UTC to 15 at 23 UTC
Wind 8 kt from the North/Northeast
Visibility 10 km or more
Broken clouds at a height of 5000 ft
Probability 30% :
Temporary
from 15 at 21 UTC to 15 at 23 UTC
Visibility: 2000 m
at a height of 1200 ft
light snow showers

TAF: ENML 151700Z 1518/1523 03008KT 9999 BKN050 PROB30 TEMPO 1521/1523 2000 -SHSN VV012

Weather observations and forecasts of more than 4000 airports (METAR and TAF reports).

The available stations are represented by yellow and red dots on the map.

Hover mouse over dot to see the name of the station.

Then click to see weather observations and forecasts.

To change the map : click on the green buttons with a black cross to zoom in, on the green button with a dash to zoom out, or on the green arrows for adjacent maps.


METAR-TAF: